sensor_id;sensor_type;location;lat;lon;timestamp;P1;durP1;ratioP1;P2;durP2;ratioP2
71963;SDS011;59834;52.124;5.422;2023-03-26T00:00:59;10.02;;;1.50;;
71963;SDS011;59834;52.124;5.422;2023-03-26T00:03:27;8.88;;;1.45;;
71963;SDS011;59834;52.124;5.422;2023-03-26T00:06:02;12.93;;;2.25;;
71963;SDS011;59834;52.124;5.422;2023-03-26T00:08:33;15.97;;;2.60;;
71963;SDS011;59834;52.124;5.422;2023-03-26T00:11:01;16.05;;;1.77;;
71963;SDS011;59834;52.124;5.422;2023-03-26T00:13:30;15.90;;;1.77;;
71963;SDS011;59834;52.124;5.422;2023-03-26T00:15:57;11.02;;;1.30;;
71963;SDS011;59834;52.124;5.422;2023-03-26T00:18:24;13.25;;;1.95;;
71963;SDS011;59834;52.124;5.422;2023-03-26T00:21:00;11.53;;;1.47;;
71963;SDS011;59834;52.124;5.422;2023-03-26T00:23:29;11.90;;;2.17;;
71963;SDS011;59834;52.124;5.422;2023-03-26T00:25:56;6.93;;;0.85;;
71963;SDS011;59834;52.124;5.422;2023-03-26T00:28:23;14.60;;;1.75;;
71963;SDS011;59834;52.124;5.422;2023-03-26T00:31:01;12.45;;;1.05;;
71963;SDS011;59834;52.124;5.422;2023-03-26T00:33:30;7.57;;;1.33;;
71963;SDS011;59834;52.124;5.422;2023-03-26T00:35:58;5.93;;;1.27;;
71963;SDS011;59834;52.124;5.422;2023-03-26T00:38:29;12.27;;;0.93;;
71963;SDS011;59834;52.124;5.422;2023-03-26T00:40:58;13.93;;;1.40;;
71963;SDS011;59834;52.124;5.422;2023-03-26T00:43:32;12.98;;;1.10;;
71963;SDS011;59834;52.124;5.422;2023-03-26T00:46:00;5.97;;;0.70;;
71963;SDS011;59834;52.124;5.422;2023-03-26T00:48:31;13.98;;;1.42;;
71963;SDS011;59834;52.124;5.422;2023-03-26T00:51:10;10.52;;;1.20;;
71963;SDS011;59834;52.124;5.422;2023-03-26T00:53:41;8.10;;;1.08;;
71963;SDS011;59834;52.124;5.422;2023-03-26T00:56:09;12.38;;;0.90;;
71963;SDS011;59834;52.124;5.422;2023-03-26T00:58:37;13.43;;;1.27;;
71963;SDS011;59834;52.124;5.422;2023-03-26T01:01:05;12.73;;;1.55;;
71963;SDS011;59834;52.124;5.422;2023-03-26T01:03:35;9.43;;;0.77;;
71963;SDS011;59834;52.124;5.422;2023-03-26T01:06:04;9.73;;;0.68;;
71963;SDS011;59834;52.124;5.422;2023-03-26T01:11:05;10.83;;;0.90;;
71963;SDS011;59834;52.124;5.422;2023-03-26T01:13:46;10.55;;;1.00;;
71963;SDS011;59834;52.124;5.422;2023-03-26T01:18:49;12.90;;;0.80;;
71963;SDS011;59834;52.124;5.422;2023-03-26T01:21:19;12.00;;;1.00;;
71963;SDS011;59834;52.124;5.422;2023-03-26T01:26:59;18.10;;;1.73;;
71963;SDS011;59834;52.124;5.422;2023-03-26T01:32:27;7.13;;;0.52;;
71963;SDS011;59834;52.124;5.422;2023-03-26T01:40:25;8.43;;;1.25;;
71963;SDS011;59834;52.124;5.422;2023-03-26T01:43:08;20.77;;;1.40;;
71963;SDS011;59834;52.124;5.422;2023-03-26T01:45:44;10.32;;;1.52;;
71963;SDS011;59834;52.124;5.422;2023-03-26T01:48:12;12.07;;;1.30;;
71963;SDS011;59834;52.124;5.422;2023-03-26T01:50:39;9.53;;;0.90;;
71963;SDS011;59834;52.124;5.422;2023-03-26T01:53:06;18.20;;;1.13;;
71963;SDS011;59834;52.124;5.422;2023-03-26T01:55:56;11.60;;;1.20;;
71963;SDS011;59834;52.124;5.422;2023-03-26T02:01:23;11.43;;;0.82;;
71963;SDS011;59834;52.124;5.422;2023-03-26T02:03:58;11.00;;;1.63;;
71963;SDS011;59834;52.124;5.422;2023-03-26T02:07:09;5.47;;;0.65;;
71963;SDS011;59834;52.124;5.422;2023-03-26T02:09:41;9.73;;;1.15;;
71963;SDS011;59834;52.124;5.422;2023-03-26T02:12:12;5.13;;;0.90;;
71963;SDS011;59834;52.124;5.422;2023-03-26T02:14:40;19.15;;;1.27;;
71963;SDS011;59834;52.124;5.422;2023-03-26T02:17:08;7.70;;;1.37;;
71963;SDS011;59834;52.124;5.422;2023-03-26T02:19:36;15.85;;;2.13;;
71963;SDS011;59834;52.124;5.422;2023-03-26T02:22:07;11.68;;;1.45;;
71963;SDS011;59834;52.124;5.422;2023-03-26T02:24:39;7.53;;;1.00;;
71963;SDS011;59834;52.124;5.422;2023-03-26T02:27:06;16.67;;;1.00;;
71963;SDS011;59834;52.124;5.422;2023-03-26T02:29:37;13.40;;;2.20;;
71963;SDS011;59834;52.124;5.422;2023-03-26T02:32:10;13.43;;;0.77;;
71963;SDS011;59834;52.124;5.422;2023-03-26T02:34:40;15.38;;;0.90;;
71963;SDS011;59834;52.124;5.422;2023-03-26T02:37:07;13.18;;;0.82;;
71963;SDS011;59834;52.124;5.422;2023-03-26T02:39:35;13.50;;;1.52;;
71963;SDS011;59834;52.124;5.422;2023-03-26T02:42:01;13.67;;;1.40;;
71963;SDS011;59834;52.124;5.422;2023-03-26T02:44:28;17.92;;;1.25;;
71963;SDS011;59834;52.124;5.422;2023-03-26T02:46:54;8.88;;;0.60;;
71963;SDS011;59834;52.124;5.422;2023-03-26T02:49:21;12.63;;;1.65;;
71963;SDS011;59834;52.124;5.422;2023-03-26T02:51:47;14.07;;;1.10;;
71963;SDS011;59834;52.124;5.422;2023-03-26T02:54:14;8.13;;;0.80;;
71963;SDS011;59834;52.124;5.422;2023-03-26T02:56:41;16.63;;;1.40;;
71963;SDS011;59834;52.124;5.422;2023-03-26T02:59:08;12.07;;;1.00;;
71963;SDS011;59834;52.124;5.422;2023-03-26T03:01:35;19.70;;;1.48;;
71963;SDS011;59834;52.124;5.422;2023-03-26T03:04:08;15.90;;;1.20;;
71963;SDS011;59834;52.124;5.422;2023-03-26T03:06:35;18.10;;;1.70;;
71963;SDS011;59834;52.124;5.422;2023-03-26T03:09:04;16.10;;;1.50;;
71963;SDS011;59834;52.124;5.422;2023-03-26T03:11:31;19.42;;;1.90;;
71963;SDS011;59834;52.124;5.422;2023-03-26T03:13:57;16.10;;;1.75;;
71963;SDS011;59834;52.124;5.422;2023-03-26T03:16:24;29.02;;;2.35;;
71963;SDS011;59834;52.124;5.422;2023-03-26T03:18:51;14.17;;;1.80;;
71963;SDS011;59834;52.124;5.422;2023-03-26T03:21:24;14.07;;;1.63;;
71963;SDS011;59834;52.124;5.422;2023-03-26T03:23:55;39.40;;;5.22;;
71963;SDS011;59834;52.124;5.422;2023-03-26T03:26:25;31.38;;;3.30;;
71963;SDS011;59834;52.124;5.422;2023-03-26T03:28:53;28.95;;;3.38;;
71963;SDS011;59834;52.124;5.422;2023-03-26T03:31:23;23.60;;;3.20;;
71963;SDS011;59834;52.124;5.422;2023-03-26T03:33:51;17.92;;;3.47;;
71963;SDS011;59834;52.124;5.422;2023-03-26T03:36:19;35.60;;;4.57;;
71963;SDS011;59834;52.124;5.422;2023-03-26T03:38:49;25.23;;;3.05;;
71963;SDS011;59834;52.124;5.422;2023-03-26T03:41:16;30.23;;;3.65;;
71963;SDS011;59834;52.124;5.422;2023-03-26T03:43:44;30.73;;;3.80;;
71963;SDS011;59834;52.124;5.422;2023-03-26T03:46:10;24.85;;;5.32;;
71963;SDS011;59834;52.124;5.422;2023-03-26T03:48:37;26.13;;;4.45;;
71963;SDS011;59834;52.124;5.422;2023-03-26T03:51:05;28.75;;;3.72;;
71963;SDS011;59834;52.124;5.422;2023-03-26T03:53:32;28.08;;;3.63;;
71963;SDS011;59834;52.124;5.422;2023-03-26T03:56:02;23.73;;;4.77;;
71963;SDS011;59834;52.124;5.422;2023-03-26T03:58:30;31.75;;;4.13;;
71963;SDS011;59834;52.124;5.422;2023-03-26T04:00:56;22.38;;;3.90;;
71963;SDS011;59834;52.124;5.422;2023-03-26T04:03:29;30.67;;;5.97;;
71963;SDS011;59834;52.124;5.422;2023-03-26T04:05:59;30.63;;;4.05;;
71963;SDS011;59834;52.124;5.422;2023-03-26T04:08:26;33.13;;;4.73;;
71963;SDS011;59834;52.124;5.422;2023-03-26T04:10:53;25.52;;;4.55;;
71963;SDS011;59834;52.124;5.422;2023-03-26T04:13:19;31.60;;;5.60;;
71963;SDS011;59834;52.124;5.422;2023-03-26T04:15:46;28.88;;;4.80;;
71963;SDS011;59834;52.124;5.422;2023-03-26T04:18:12;31.08;;;4.38;;
71963;SDS011;59834;52.124;5.422;2023-03-26T04:20:40;29.10;;;4.37;;
71963;SDS011;59834;52.124;5.422;2023-03-26T04:23:12;34.35;;;5.45;;
71963;SDS011;59834;52.124;5.422;2023-03-26T04:25:43;26.05;;;4.75;;
71963;SDS011;59834;52.124;5.422;2023-03-26T04:28:18;25.60;;;4.72;;
71963;SDS011;59834;52.124;5.422;2023-03-26T04:30:53;27.92;;;5.50;;
71963;SDS011;59834;52.124;5.422;2023-03-26T04:33:22;30.53;;;5.27;;
71963;SDS011;59834;52.124;5.422;2023-03-26T04:35:50;38.78;;;4.78;;
71963;SDS011;59834;52.124;5.422;2023-03-26T04:38:17;34.22;;;5.45;;
71963;SDS011;59834;52.124;5.422;2023-03-26T04:40:44;27.80;;;4.15;;
71963;SDS011;59834;52.124;5.422;2023-03-26T04:43:14;24.55;;;5.07;;
71963;SDS011;59834;52.124;5.422;2023-03-26T04:45:43;24.57;;;4.17;;
71963;SDS011;59834;52.124;5.422;2023-03-26T04:48:11;20.17;;;5.20;;
71963;SDS011;59834;52.124;5.422;2023-03-26T04:50:40;25.13;;;4.85;;
71963;SDS011;59834;52.124;5.422;2023-03-26T04:53:13;29.00;;;5.25;;
71963;SDS011;59834;52.124;5.422;2023-03-26T04:58:25;31.87;;;5.33;;
71963;SDS011;59834;52.124;5.422;2023-03-26T05:00:58;33.88;;;6.38;;
71963;SDS011;59834;52.124;5.422;2023-03-26T05:03:35;33.03;;;5.35;;
71963;SDS011;59834;52.124;5.422;2023-03-26T05:06:06;29.45;;;5.75;;
71963;SDS011;59834;52.124;5.422;2023-03-26T05:08:34;26.13;;;5.05;;
71963;SDS011;59834;52.124;5.422;2023-03-26T05:11:01;28.07;;;5.37;;
71963;SDS011;59834;52.124;5.422;2023-03-26T05:13:28;24.75;;;4.88;;
71963;SDS011;59834;52.124;5.422;2023-03-26T05:15:54;31.17;;;6.43;;
71963;SDS011;59834;52.124;5.422;2023-03-26T05:18:21;22.45;;;4.40;;
71963;SDS011;59834;52.124;5.422;2023-03-26T05:20:48;33.65;;;5.70;;
71963;SDS011;59834;52.124;5.422;2023-03-26T05:23:14;28.10;;;5.83;;
71963;SDS011;59834;52.124;5.422;2023-03-26T05:25:41;27.58;;;6.68;;
71963;SDS011;59834;52.124;5.422;2023-03-26T05:28:07;22.85;;;4.75;;
71963;SDS011;59834;52.124;5.422;2023-03-26T05:30:35;28.17;;;6.15;;
71963;SDS011;59834;52.124;5.422;2023-03-26T05:33:02;26.60;;;4.95;;
71963;SDS011;59834;52.124;5.422;2023-03-26T05:35:30;23.70;;;5.57;;
71963;SDS011;59834;52.124;5.422;2023-03-26T05:37:56;24.35;;;5.20;;
71963;SDS011;59834;52.124;5.422;2023-03-26T05:40:23;32.80;;;6.43;;
71963;SDS011;59834;52.124;5.422;2023-03-26T05:42:49;31.05;;;6.47;;
71963;SDS011;59834;52.124;5.422;2023-03-26T05:45:16;23.90;;;5.65;;
71963;SDS011;59834;52.124;5.422;2023-03-26T05:47:43;22.40;;;5.67;;
71963;SDS011;59834;52.124;5.422;2023-03-26T05:50:09;29.27;;;5.05;;
71963;SDS011;59834;52.124;5.422;2023-03-26T05:52:36;23.08;;;4.97;;
71963;SDS011;59834;52.124;5.422;2023-03-26T05:55:03;32.88;;;5.53;;
71963;SDS011;59834;52.124;5.422;2023-03-26T05:57:31;31.30;;;5.93;;
71963;SDS011;59834;52.124;5.422;2023-03-26T05:59:58;25.30;;;5.40;;
71963;SDS011;59834;52.124;5.422;2023-03-26T06:02:25;28.98;;;5.53;;
71963;SDS011;59834;52.124;5.422;2023-03-26T06:04:51;30.50;;;6.72;;
71963;SDS011;59834;52.124;5.422;2023-03-26T06:07:18;32.28;;;6.00;;
71963;SDS011;59834;52.124;5.422;2023-03-26T06:09:45;25.88;;;6.30;;
71963;SDS011;59834;52.124;5.422;2023-03-26T06:12:11;29.30;;;4.87;;
71963;SDS011;59834;52.124;5.422;2023-03-26T06:14:39;30.92;;;6.30;;
71963;SDS011;59834;52.124;5.422;2023-03-26T06:17:08;26.13;;;5.03;;
71963;SDS011;59834;52.124;5.422;2023-03-26T06:19:35;33.05;;;5.70;;
71963;SDS011;59834;52.124;5.422;2023-03-26T06:22:03;32.85;;;5.63;;
71963;SDS011;59834;52.124;5.422;2023-03-26T06:24:30;28.00;;;5.13;;
71963;SDS011;59834;52.124;5.422;2023-03-26T06:26:58;26.83;;;5.18;;
71963;SDS011;59834;52.124;5.422;2023-03-26T06:29:24;34.95;;;4.63;;
71963;SDS011;59834;52.124;5.422;2023-03-26T06:31:51;35.28;;;6.03;;
71963;SDS011;59834;52.124;5.422;2023-03-26T06:34:18;32.10;;;4.97;;
71963;SDS011;59834;52.124;5.422;2023-03-26T06:36:44;20.67;;;5.63;;
71963;SDS011;59834;52.124;5.422;2023-03-26T06:39:11;37.42;;;5.65;;
71963;SDS011;59834;52.124;5.422;2023-03-26T06:41:39;33.00;;;5.85;;
71963;SDS011;59834;52.124;5.422;2023-03-26T06:45:13;23.98;;;4.30;;
71963;SDS011;59834;52.124;5.422;2023-03-26T06:47:40;41.15;;;6.28;;
71963;SDS011;59834;52.124;5.422;2023-03-26T06:50:07;26.00;;;4.60;;
71963;SDS011;59834;52.124;5.422;2023-03-26T06:52:36;22.45;;;4.50;;
71963;SDS011;59834;52.124;5.422;2023-03-26T06:55:03;36.92;;;4.63;;
71963;SDS011;59834;52.124;5.422;2023-03-26T06:57:33;34.13;;;4.38;;
71963;SDS011;59834;52.124;5.422;2023-03-26T07:00:00;22.85;;;4.15;;
71963;SDS011;59834;52.124;5.422;2023-03-26T07:02:34;18.77;;;3.93;;
71963;SDS011;59834;52.124;5.422;2023-03-26T07:05:01;27.58;;;4.35;;
71963;SDS011;59834;52.124;5.422;2023-03-26T07:07:42;16.95;;;4.45;;
71963;SDS011;59834;52.124;5.422;2023-03-26T07:10:12;23.52;;;4.07;;
71963;SDS011;59834;52.124;5.422;2023-03-26T07:12:39;30.60;;;4.63;;
71963;SDS011;59834;52.124;5.422;2023-03-26T07:15:07;25.30;;;3.57;;
71963;SDS011;59834;52.124;5.422;2023-03-26T07:17:35;34.58;;;4.65;;
71963;SDS011;59834;52.124;5.422;2023-03-26T07:20:02;25.27;;;4.90;;
71963;SDS011;59834;52.124;5.422;2023-03-26T07:22:30;16.70;;;3.90;;
71963;SDS011;59834;52.124;5.422;2023-03-26T07:24:57;16.65;;;4.72;;
71963;SDS011;59834;52.124;5.422;2023-03-26T07:33:05;37.53;;;5.43;;
71963;SDS011;59834;52.124;5.422;2023-03-26T07:38:18;31.13;;;5.47;;
71963;SDS011;59834;52.124;5.422;2023-03-26T07:40:57;32.07;;;6.20;;
71963;SDS011;59834;52.124;5.422;2023-03-26T07:46:05;26.35;;;5.00;;
71963;SDS011;59834;52.124;5.422;2023-03-26T07:48:38;28.23;;;5.60;;
71963;SDS011;59834;52.124;5.422;2023-03-26T07:51:07;32.38;;;5.75;;
71963;SDS011;59834;52.124;5.422;2023-03-26T07:53:35;26.17;;;6.67;;
71963;SDS011;59834;52.124;5.422;2023-03-26T07:56:25;24.75;;;6.90;;
71963;SDS011;59834;52.124;5.422;2023-03-26T07:59:05;35.40;;;6.95;;
71963;SDS011;59834;52.124;5.422;2023-03-26T08:07:38;24.00;;;6.83;;
71963;SDS011;59834;52.124;5.422;2023-03-26T08:16:42;29.50;;;6.40;;
71963;SDS011;59834;52.124;5.422;2023-03-26T08:18:58;24.17;;;6.35;;
71963;SDS011;59834;52.124;5.422;2023-03-26T08:21:50;29.07;;;6.03;;
71963;SDS011;59834;52.124;5.422;2023-03-26T08:24:32;27.10;;;5.70;;
71963;SDS011;59834;52.124;5.422;2023-03-26T08:29:59;26.10;;;6.45;;
71963;SDS011;59834;52.124;5.422;2023-03-26T08:32:32;22.63;;;6.60;;
71963;SDS011;59834;52.124;5.422;2023-03-26T08:34:59;32.43;;;6.70;;
71963;SDS011;59834;52.124;5.422;2023-03-26T08:37:26;25.23;;;6.40;;
71963;SDS011;59834;52.124;5.422;2023-03-26T08:39:54;32.63;;;6.95;;
71963;SDS011;59834;52.124;5.422;2023-03-26T08:42:38;26.63;;;6.63;;
71963;SDS011;59834;52.124;5.422;2023-03-26T08:45:29;16.92;;;5.35;;
71963;SDS011;59834;52.124;5.422;2023-03-26T08:57:15;26.20;;;7.47;;
71963;SDS011;59834;52.124;5.422;2023-03-26T09:03:11;25.37;;;6.63;;
71963;SDS011;59834;52.124;5.422;2023-03-26T09:06:24;32.55;;;7.32;;
71963;SDS011;59834;52.124;5.422;2023-03-26T09:15:31;20.95;;;6.95;;
71963;SDS011;59834;52.124;5.422;2023-03-26T09:31:51;24.87;;;7.03;;
71963;SDS011;59834;52.124;5.422;2023-03-26T09:40:30;16.55;;;6.00;;
71963;SDS011;59834;52.124;5.422;2023-03-26T09:45:57;15.20;;;5.60;;
71963;SDS011;59834;52.124;5.422;2023-03-26T09:51:41;14.00;;;4.55;;
71963;SDS011;59834;52.124;5.422;2023-03-26T10:11:42;20.25;;;4.65;;
71963;SDS011;59834;52.124;5.422;2023-03-26T10:36:14;8.98;;;3.08;;
71963;SDS011;59834;52.124;5.422;2023-03-26T10:38:55;19.60;;;2.20;;
71963;SDS011;59834;52.124;5.422;2023-03-26T10:41:37;4.57;;;2.30;;
71963;SDS011;59834;52.124;5.422;2023-03-26T10:52:33;9.00;;;2.22;;
71963;SDS011;59834;52.124;5.422;2023-03-26T10:58:07;10.75;;;2.20;;
71963;SDS011;59834;52.124;5.422;2023-03-26T11:01:21;10.55;;;3.03;;
71963;SDS011;59834;52.124;5.422;2023-03-26T11:03:53;10.50;;;1.77;;
71963;SDS011;59834;52.124;5.422;2023-03-26T11:06:29;9.88;;;2.90;;
71963;SDS011;59834;52.124;5.422;2023-03-26T11:12:10;11.30;;;1.85;;
71963;SDS011;59834;52.124;5.422;2023-03-26T11:15:00;13.32;;;2.60;;
71963;SDS011;59834;52.124;5.422;2023-03-26T11:26:40;16.27;;;1.67;;
71963;SDS011;59834;52.124;5.422;2023-03-26T11:32:07;8.25;;;1.60;;
71963;SDS011;59834;52.124;5.422;2023-03-26T11:34:44;10.50;;;1.63;;
71963;SDS011;59834;52.124;5.422;2023-03-26T11:40:00;11.00;;;1.48;;
71963;SDS011;59834;52.124;5.422;2023-03-26T11:42:31;13.45;;;1.38;;
71963;SDS011;59834;52.124;5.422;2023-03-26T11:44:59;9.43;;;1.15;;
71963;SDS011;59834;52.124;5.422;2023-03-26T11:47:31;5.63;;;1.30;;
71963;SDS011;59834;52.124;5.422;2023-03-26T11:50:09;6.50;;;0.93;;
71963;SDS011;59834;52.124;5.422;2023-03-26T11:52:49;7.63;;;0.80;;
71963;SDS011;59834;52.124;5.422;2023-03-26T11:55:21;11.20;;;1.27;;
71963;SDS011;59834;52.124;5.422;2023-03-26T11:57:52;16.73;;;1.42;;
71963;SDS011;59834;52.124;5.422;2023-03-26T12:00:20;7.80;;;1.48;;
71963;SDS011;59834;52.124;5.422;2023-03-26T12:02:57;41.50;;;2.17;;
71963;SDS011;59834;52.124;5.422;2023-03-26T12:05:26;12.50;;;1.20;;
71963;SDS011;59834;52.124;5.422;2023-03-26T12:08:02;10.20;;;1.23;;
71963;SDS011;59834;52.124;5.422;2023-03-26T12:10:43;19.60;;;1.83;;
71963;SDS011;59834;52.124;5.422;2023-03-26T12:16:08;8.50;;;1.80;;
71963;SDS011;59834;52.124;5.422;2023-03-26T12:18:44;9.43;;;1.88;;
71963;SDS011;59834;52.124;5.422;2023-03-26T12:21:22;13.73;;;2.25;;
71963;SDS011;59834;52.124;5.422;2023-03-26T12:26:35;11.95;;;0.98;;
71963;SDS011;59834;52.124;5.422;2023-03-26T12:29:15;8.87;;;0.83;;
71963;SDS011;59834;52.124;5.422;2023-03-26T12:34:20;9.13;;;0.93;;
71963;SDS011;59834;52.124;5.422;2023-03-26T12:36:52;7.03;;;0.52;;
71963;SDS011;59834;52.124;5.422;2023-03-26T12:39:28;19.48;;;1.00;;
71963;SDS011;59834;52.124;5.422;2023-03-26T12:42:26;8.90;;;1.03;;
71963;SDS011;59834;52.124;5.422;2023-03-26T12:45:27;11.25;;;0.85;;
71963;SDS011;59834;52.124;5.422;2023-03-26T12:47:56;6.20;;;1.65;;
71963;SDS011;59834;52.124;5.422;2023-03-26T12:50:31;9.38;;;0.40;;
71963;SDS011;59834;52.124;5.422;2023-03-26T13:01:54;6.40;;;0.50;;
71963;SDS011;59834;52.124;5.422;2023-03-26T13:07:07;7.60;;;0.70;;
71963;SDS011;59834;52.124;5.422;2023-03-26T13:09:57;7.80;;;0.30;;
71963;SDS011;59834;52.124;5.422;2023-03-26T13:12:52;7.53;;;0.55;;
71963;SDS011;59834;52.124;5.422;2023-03-26T13:15:35;7.57;;;1.13;;
71963;SDS011;59834;52.124;5.422;2023-03-26T13:26:57;8.68;;;0.40;;
71963;SDS011;59834;52.124;5.422;2023-03-26T13:29:52;7.25;;;0.50;;
71963;SDS011;59834;52.124;5.422;2023-03-26T13:38:10;9.60;;;0.47;;
71963;SDS011;59834;52.124;5.422;2023-03-26T13:46:33;4.82;;;0.30;;
71963;SDS011;59834;52.124;5.422;2023-03-26T14:02:22;5.53;;;0.35;;
71963;SDS011;59834;52.124;5.422;2023-03-26T14:04:58;6.17;;;0.40;;
71963;SDS011;59834;52.124;5.422;2023-03-26T14:07:34;6.20;;;0.52;;
71963;SDS011;59834;52.124;5.422;2023-03-26T14:10:16;7.97;;;0.52;;
71963;SDS011;59834;52.124;5.422;2023-03-26T14:15:46;4.10;;;0.30;;
71963;SDS011;59834;52.124;5.422;2023-03-26T14:18:23;3.63;;;0.33;;
71963;SDS011;59834;52.124;5.422;2023-03-26T14:32:34;4.83;;;0.73;;
71963;SDS011;59834;52.124;5.422;2023-03-26T14:37:59;7.30;;;0.35;;
71963;SDS011;59834;52.124;5.422;2023-03-26T14:52:23;3.38;;;0.20;;
71963;SDS011;59834;52.124;5.422;2023-03-26T15:12:23;5.45;;;0.93;;
71963;SDS011;59834;52.124;5.422;2023-03-26T15:24:14;3.50;;;0.20;;
71963;SDS011;59834;52.124;5.422;2023-03-26T15:43:27;5.90;;;0.60;;
71963;SDS011;59834;52.124;5.422;2023-03-26T15:46:50;6.47;;;0.50;;
71963;SDS011;59834;52.124;5.422;2023-03-26T15:49:41;6.88;;;0.70;;
71963;SDS011;59834;52.124;5.422;2023-03-26T15:55:33;8.98;;;0.40;;
71963;SDS011;59834;52.124;5.422;2023-03-26T15:58:12;5.80;;;0.40;;
71963;SDS011;59834;52.124;5.422;2023-03-26T16:00:50;9.20;;;1.20;;
71963;SDS011;59834;52.124;5.422;2023-03-26T16:04:28;6.22;;;0.65;;
71963;SDS011;59834;52.124;5.422;2023-03-26T16:11:57;11.40;;;0.53;;
71963;SDS011;59834;52.124;5.422;2023-03-26T16:17:03;11.02;;;0.43;;
71963;SDS011;59834;52.124;5.422;2023-03-26T16:19:34;4.97;;;0.40;;
71963;SDS011;59834;52.124;5.422;2023-03-26T16:22:15;5.45;;;0.30;;
71963;SDS011;59834;52.124;5.422;2023-03-26T16:25:30;4.03;;;0.63;;
71963;SDS011;59834;52.124;5.422;2023-03-26T16:28:14;11.55;;;0.73;;
71963;SDS011;59834;52.124;5.422;2023-03-26T16:31:03;5.30;;;0.40;;
71963;SDS011;59834;52.124;5.422;2023-03-26T16:33:57;4.88;;;0.52;;
71963;SDS011;59834;52.124;5.422;2023-03-26T16:36:45;3.78;;;0.68;;
71963;SDS011;59834;52.124;5.422;2023-03-26T16:39:18;4.17;;;0.30;;
71963;SDS011;59834;52.124;5.422;2023-03-26T16:41:53;6.15;;;0.20;;
71963;SDS011;59834;52.124;5.422;2023-03-26T16:47:30;5.80;;;0.60;;
71963;SDS011;59834;52.124;5.422;2023-03-26T16:55:56;5.97;;;0.98;;
71963;SDS011;59834;52.124;5.422;2023-03-26T16:58:43;2.65;;;0.20;;
71963;SDS011;59834;52.124;5.422;2023-03-26T17:04:44;2.17;;;0.20;;
71963;SDS011;59834;52.124;5.422;2023-03-26T17:07:19;6.63;;;0.20;;
71963;SDS011;59834;52.124;5.422;2023-03-26T17:27:03;2.67;;;0.30;;
71963;SDS011;59834;52.124;5.422;2023-03-26T17:29:59;6.05;;;0.30;;
71963;SDS011;59834;52.124;5.422;2023-03-26T17:35:37;7.10;;;0.97;;
71963;SDS011;59834;52.124;5.422;2023-03-26T17:43:38;9.90;;;0.80;;
71963;SDS011;59834;52.124;5.422;2023-03-26T17:46:17;7.07;;;0.40;;
71963;SDS011;59834;52.124;5.422;2023-03-26T17:48:56;3.37;;;0.17;;
71963;SDS011;59834;52.124;5.422;2023-03-26T17:51:41;4.50;;;0.73;;
71963;SDS011;59834;52.124;5.422;2023-03-26T17:54:26;6.28;;;0.52;;
71963;SDS011;59834;52.124;5.422;2023-03-26T17:57:05;2.92;;;0.40;;
71963;SDS011;59834;52.124;5.422;2023-03-26T17:59:54;4.03;;;0.22;;
71963;SDS011;59834;52.124;5.422;2023-03-26T18:02:36;8.77;;;0.87;;
71963;SDS011;59834;52.124;5.422;2023-03-26T18:05:08;5.63;;;0.30;;
71963;SDS011;59834;52.124;5.422;2023-03-26T18:16:14;6.40;;;0.50;;
71963;SDS011;59834;52.124;5.422;2023-03-26T18:18:50;4.60;;;0.30;;
71963;SDS011;59834;52.124;5.422;2023-03-26T18:21:21;4.28;;;0.80;;
71963;SDS011;59834;52.124;5.422;2023-03-26T18:23:53;3.78;;;0.30;;
71963;SDS011;59834;52.124;5.422;2023-03-26T18:29:09;3.37;;;0.30;;
71963;SDS011;59834;52.124;5.422;2023-03-26T18:31:47;2.92;;;0.50;;
71963;SDS011;59834;52.124;5.422;2023-03-26T18:34:18;6.28;;;0.63;;
71963;SDS011;59834;52.124;5.422;2023-03-26T18:36:49;19.77;;;8.90;;
71963;SDS011;59834;52.124;5.422;2023-03-26T18:39:26;28.15;;;15.50;;
71963;SDS011;59834;52.124;5.422;2023-03-26T18:41:53;3.20;;;1.47;;
71963;SDS011;59834;52.124;5.422;2023-03-26T18:44:20;10.27;;;0.40;;
71963;SDS011;59834;52.124;5.422;2023-03-26T18:46:47;7.20;;;0.43;;
71963;SDS011;59834;52.124;5.422;2023-03-26T18:49:14;8.68;;;0.40;;
71963;SDS011;59834;52.124;5.422;2023-03-26T18:51:42;3.30;;;0.28;;
71963;SDS011;59834;52.124;5.422;2023-03-26T18:54:22;5.13;;;0.40;;
71963;SDS011;59834;52.124;5.422;2023-03-26T18:56:54;7.75;;;0.20;;
71963;SDS011;59834;52.124;5.422;2023-03-26T19:02:04;4.47;;;0.20;;
71963;SDS011;59834;52.124;5.422;2023-03-26T19:04:35;5.55;;;0.10;;
71963;SDS011;59834;52.124;5.422;2023-03-26T19:07:07;3.97;;;0.23;;
71963;SDS011;59834;52.124;5.422;2023-03-26T19:09:39;4.20;;;0.57;;
71963;SDS011;59834;52.124;5.422;2023-03-26T19:12:52;9.77;;;0.50;;
71963;SDS011;59834;52.124;5.422;2023-03-26T19:15:03;10.20;;;0.52;;
71963;SDS011;59834;52.124;5.422;2023-03-26T19:17:36;6.30;;;0.20;;
71963;SDS011;59834;52.124;5.422;2023-03-26T19:20:14;5.73;;;0.60;;
71963;SDS011;59834;52.124;5.422;2023-03-26T19:22:45;4.78;;;0.13;;
71963;SDS011;59834;52.124;5.422;2023-03-26T19:25:19;8.68;;;0.32;;
71963;SDS011;59834;52.124;5.422;2023-03-26T19:27:48;3.85;;;1.05;;
71963;SDS011;59834;52.124;5.422;2023-03-26T19:30:25;11.23;;;0.57;;
71963;SDS011;59834;52.124;5.422;2023-03-26T19:33:00;11.00;;;0.60;;
71963;SDS011;59834;52.124;5.422;2023-03-26T19:35:39;8.60;;;0.73;;
71963;SDS011;59834;52.124;5.422;2023-03-26T19:38:21;8.13;;;0.57;;
71963;SDS011;59834;52.124;5.422;2023-03-26T19:40:51;7.20;;;0.22;;
71963;SDS011;59834;52.124;5.422;2023-03-26T19:43:20;11.70;;;0.38;;
71963;SDS011;59834;52.124;5.422;2023-03-26T19:45:48;8.63;;;0.23;;
71963;SDS011;59834;52.124;5.422;2023-03-26T19:48:27;5.20;;;0.17;;
71963;SDS011;59834;52.124;5.422;2023-03-26T19:51:13;9.23;;;0.80;;
71963;SDS011;59834;52.124;5.422;2023-03-26T19:53:50;4.10;;;0.38;;
71963;SDS011;59834;52.124;5.422;2023-03-26T19:56:19;5.60;;;0.55;;
71963;SDS011;59834;52.124;5.422;2023-03-26T19:58:47;8.70;;;0.77;;
71963;SDS011;59834;52.124;5.422;2023-03-26T20:01:22;5.93;;;0.20;;
71963;SDS011;59834;52.124;5.422;2023-03-26T20:03:55;7.75;;;0.45;;
71963;SDS011;59834;52.124;5.422;2023-03-26T20:06:26;8.43;;;0.30;;
71963;SDS011;59834;52.124;5.422;2023-03-26T20:09:09;4.97;;;0.30;;
71963;SDS011;59834;52.124;5.422;2023-03-26T20:11:36;4.93;;;0.40;;
71963;SDS011;59834;52.124;5.422;2023-03-26T20:14:15;0.70;;;0.17;;
71963;SDS011;59834;52.124;5.422;2023-03-26T20:16:49;5.03;;;0.47;;
71963;SDS011;59834;52.124;5.422;2023-03-26T20:19:15;5.63;;;0.30;;
71963;SDS011;59834;52.124;5.422;2023-03-26T20:21:43;7.50;;;0.43;;
71963;SDS011;59834;52.124;5.422;2023-03-26T20:24:13;3.80;;;0.20;;
71963;SDS011;59834;52.124;5.422;2023-03-26T20:26:42;4.68;;;0.30;;
71963;SDS011;59834;52.124;5.422;2023-03-26T20:29:11;4.10;;;0.20;;
71963;SDS011;59834;52.124;5.422;2023-03-26T20:31:38;4.32;;;0.35;;
71963;SDS011;59834;52.124;5.422;2023-03-26T20:34:16;2.90;;;0.35;;
71963;SDS011;59834;52.124;5.422;2023-03-26T20:36:45;4.00;;;0.27;;
71963;SDS011;59834;52.124;5.422;2023-03-26T20:39:12;6.47;;;0.32;;
71963;SDS011;59834;52.124;5.422;2023-03-26T20:41:42;4.88;;;0.22;;
71963;SDS011;59834;52.124;5.422;2023-03-26T20:44:11;7.78;;;0.20;;
71963;SDS011;59834;52.124;5.422;2023-03-26T20:46:40;7.20;;;0.32;;
71963;SDS011;59834;52.124;5.422;2023-03-26T20:49:08;12.37;;;0.60;;
71963;SDS011;59834;52.124;5.422;2023-03-26T20:51:36;4.35;;;0.50;;
71963;SDS011;59834;52.124;5.422;2023-03-26T20:54:19;6.80;;;0.35;;
71963;SDS011;59834;52.124;5.422;2023-03-26T20:56:48;6.22;;;0.50;;
71963;SDS011;59834;52.124;5.422;2023-03-26T20:59:17;3.90;;;1.05;;
71963;SDS011;59834;52.124;5.422;2023-03-26T21:01:47;5.30;;;0.20;;
71963;SDS011;59834;52.124;5.422;2023-03-26T21:04:15;7.03;;;0.30;;
71963;SDS011;59834;52.124;5.422;2023-03-26T21:06:42;4.30;;;0.10;;